Time;durP1;ratioP1;P1;durP2;ratioP2;P2;SDS_P1;SDS_P2;PMS_P1;PMS_P2;Temp;Humidity;BMP_temperature;BMP_pressure;BME280_temperature;BME280_humidity;BME280_pressure;Samples;Min_cycle;Max_cycle;Signal;HPM_P1;HPM_P2
2022/05/30 00:02:21;;;;;;;2.88;2.15;;;12.60;99.90;;;;;;5072600;28;20214;-76
2022/05/30 00:04:46;;;;;;;2.35;1.90;;;12.50;99.90;;;;;;5072938;28;20300;-76
2022/05/30 00:07:12;;;;;;;4.82;2.50;;;12.50;99.90;;;;;;5052877;28;20209;-77
2022/05/30 00:09:37;;;;;;;3.70;2.30;;;12.50;99.90;;;;;;5070387;28;20210;-76
2022/05/30 00:12:04;;;;;;;3.90;1.93;;;12.50;99.90;;;;;;5053966;28;20206;-76
2022/05/30 00:14:30;;;;;;;3.40;1.70;;;12.30;99.90;;;;;;5053950;28;20214;-75
2022/05/30 00:16:56;;;;;;;5.10;2.40;;;12.30;99.90;;;;;;5054217;28;20171;-75
2022/05/30 00:19:22;;;;;;;3.37;1.83;;;12.30;99.90;;;;;;5053955;28;20190;-75
2022/05/30 00:21:47;;;;;;;3.57;2.00;;;12.20;99.90;;;;;;5072060;28;20195;-75
2022/05/30 00:24:13;;;;;;;4.00;2.13;;;12.20;99.90;;;;;;5018070;28;1024678;-75
2022/05/30 00:26:39;;;;;;;2.83;1.97;;;12.20;99.90;;;;;;5072926;28;20349;-76
2022/05/30 00:29:06;;;;;;;3.30;2.33;;;12.20;99.90;;;;;;5072686;28;20179;-76
2022/05/30 00:31:32;;;;;;;2.53;2.10;;;12.20;99.90;;;;;;5073777;28;20565;-76
2022/05/30 00:33:58;;;;;;;3.47;2.20;;;12.10;99.90;;;;;;5072712;28;20577;-76
2022/05/30 00:36:23;;;;;;;3.70;2.40;;;12.10;99.90;;;;;;5053961;28;20199;-76
2022/05/30 00:38:49;;;;;;;4.87;2.43;;;12.00;99.90;;;;;;5051795;28;20210;-76
2022/05/30 00:41:16;;;;;;;2.77;2.33;;;12.10;99.90;;;;;;5054795;28;20222;-76
2022/05/30 00:43:46;;;;;;;2.90;1.90;;;12.10;99.90;;;;;;5073339;28;20179;-76
2022/05/30 00:46:12;;;;;;;3.25;2.22;;;12.10;99.90;;;;;;5072782;28;20577;-76
2022/05/30 00:49:02;;;;;;;3.37;1.90;;;12.10;99.90;;;;;;5053695;28;20202;-76
2022/05/30 00:51:32;;;;;;;4.07;2.30;;;12.20;99.90;;;;;;5054480;28;20195;-76
2022/05/30 00:54:01;;;;;;;5.07;1.83;;;12.30;99.90;;;;;;5054372;28;20203;-76
2022/05/30 00:56:32;;;;;;;3.57;2.30;;;12.30;99.90;;;;;;5054479;28;20206;-76
2022/05/30 00:58:59;;;;;;;3.30;1.87;;;12.30;99.90;;;;;;5071498;28;20540;-76
2022/05/30 01:01:24;;;;;;;2.93;1.97;;;12.30;99.90;;;;;;5072889;28;20547;-76
2022/05/30 01:06:40;;;;;;;3.47;2.27;;;12.30;99.90;;;;;;5072312;28;20202;-76
2022/05/30 01:09:11;;;;;;;3.40;2.63;;;12.40;99.90;;;;;;5068742;28;20199;-76
2022/05/30 01:11:48;;;;;;;3.47;2.00;;;12.40;99.90;;;;;;5054624;28;20226;-75
2022/05/30 01:14:13;;;;;;;3.80;2.60;;;12.50;99.90;;;;;;5054554;28;20218;-75
2022/05/30 01:16:39;;;;;;;3.63;2.87;;;12.40;99.90;;;;;;5054788;28;20177;-75
2022/05/30 01:19:16;;;;;;;3.47;2.60;;;12.40;99.90;;;;;;5071747;28;20204;-75
2022/05/30 01:22:15;;;;;;;3.17;2.60;;;12.50;99.90;;;;;;5072293;28;20248;-76
2022/05/30 01:25:19;;;;;;;3.42;2.63;;;12.40;99.90;;;;;;5043265;22;20219;-71
2022/05/30 01:28:06;;;;;;;4.33;3.07;;;12.40;99.90;;;;;;5132276;27;20295;-70
2022/05/30 01:30:35;;;;;;;3.35;2.53;;;12.40;99.90;;;;;;5132721;27;20196;-71
2022/05/30 01:33:01;;;;;;;3.57;2.50;;;12.40;99.90;;;;;;5124708;27;20236;-71
2022/05/30 01:35:28;;;;;;;3.47;3.00;;;12.30;99.90;;;;;;5104731;28;20310;-70
2022/05/30 01:37:57;;;;;;;4.40;3.30;;;12.30;99.90;;;;;;5110027;28;20575;-71
2022/05/30 01:40:24;;;;;;;7.03;3.57;;;12.30;99.90;;;;;;5111431;28;20712;-71
2022/05/30 01:42:49;;;;;;;4.10;3.00;;;12.30;99.90;;;;;;5111855;28;20229;-71
2022/05/30 01:45:15;;;;;;;4.50;2.63;;;12.20;99.90;;;;;;5110469;28;20613;-71
2022/05/30 01:47:41;;;;;;;3.70;2.90;;;12.20;99.90;;;;;;5092767;28;20615;-70
2022/05/30 01:50:07;;;;;;;3.08;2.80;;;12.20;99.90;;;;;;5110824;28;20261;-71
2022/05/30 01:52:33;;;;;;;4.50;3.20;;;12.10;99.90;;;;;;5112033;28;20269;-71
2022/05/30 01:54:59;;;;;;;3.50;3.20;;;12.10;99.90;;;;;;5111679;28;20740;-70
2022/05/30 01:57:24;;;;;;;4.67;2.60;;;12.10;99.90;;;;;;5110247;28;20281;-72
2022/05/30 01:59:50;;;;;;;3.63;2.70;;;12.10;99.90;;;;;;5111158;28;20606;-71
2022/05/30 02:02:15;;;;;;;5.30;2.80;;;12.20;99.90;;;;;;5111911;28;20193;-70
2022/05/30 02:04:41;;;;;;;4.53;2.53;;;12.20;99.90;;;;;;5112035;28;20202;-71
2022/05/30 02:07:06;;;;;;;6.17;2.90;;;12.20;99.90;;;;;;5111313;27;20296;-71
2022/05/30 02:09:32;;;;;;;4.50;2.73;;;12.20;99.90;;;;;;5107404;28;20246;-71
2022/05/30 02:11:58;;;;;;;4.03;2.90;;;12.10;99.90;;;;;;5093125;28;20197;-71
2022/05/30 02:14:24;;;;;;;6.63;2.70;;;12.20;99.90;;;;;;5109871;28;20556;-71
2022/05/30 02:17:01;;;;;;;6.07;3.10;;;12.10;99.90;;;;;;5093833;28;20177;-71
2022/05/30 02:19:29;;;;;;;5.43;3.60;;;12.00;99.90;;;;;;5101241;28;20682;-70
2022/05/30 02:21:54;;;;;;;6.70;3.67;;;12.00;99.90;;;;;;5110931;27;20213;-71
2022/05/30 02:24:21;;;;;;;5.10;3.10;;;11.90;99.90;;;;;;5107411;27;20325;-71
2022/05/30 02:26:47;;;;;;;5.03;2.93;;;11.80;99.90;;;;;;5096660;27;20231;-71
2022/05/30 02:29:13;;;;;;;10.00;3.50;;;11.90;99.90;;;;;;5129590;27;20172;-71
2022/05/30 02:31:38;;;;;;;5.10;3.97;;;11.90;99.90;;;;;;5113270;27;20195;-71
2022/05/30 02:36:50;;;;;;;5.03;3.30;;;11.90;99.90;;;;;;5131669;27;20216;-70
2022/05/30 02:39:17;;;;;;;5.87;4.00;;;11.90;99.90;;;;;;5112172;28;20283;-71
2022/05/30 02:41:47;;;;;;;4.57;3.70;;;11.90;99.90;;;;;;5112814;28;20254;-71
2022/05/30 02:44:14;;;;;;;9.20;4.33;;;11.90;99.90;;;;;;5131207;27;20233;-71
2022/05/30 02:46:40;;;;;;;5.53;3.60;;;11.90;99.90;;;;;;5113216;28;20180;-71
2022/05/30 02:49:06;;;;;;;6.07;3.47;;;12.00;99.90;;;;;;5129478;28;20192;-72
2022/05/30 02:51:32;;;;;;;6.77;4.20;;;12.00;99.90;;;;;;5129998;28;20656;-71
2022/05/30 02:53:57;;;;;;;6.73;3.83;;;11.90;99.90;;;;;;5122349;28;20205;-70
2022/05/30 02:56:23;;;;;;;6.30;4.00;;;11.90;99.90;;;;;;5131190;27;20219;-71
2022/05/30 02:58:49;;;;;;;5.97;4.07;;;12.00;99.90;;;;;;5129995;28;20244;-71
2022/05/30 03:01:15;;;;;;;8.67;4.27;;;11.90;99.90;;;;;;5133749;27;20265;-71
2022/05/30 03:03:41;;;;;;;6.73;3.97;;;11.80;99.90;;;;;;5116895;27;20220;-72
2022/05/30 03:06:07;;;;;;;5.00;3.80;;;11.80;99.90;;;;;;5117080;27;20319;-71
2022/05/30 03:08:32;;;;;;;5.43;3.80;;;11.80;99.90;;;;;;5116003;27;20200;-71
2022/05/30 03:10:59;;;;;;;4.40;3.90;;;11.90;99.90;;;;;;5135654;27;20645;-71
2022/05/30 03:13:24;;;;;;;5.27;4.00;;;11.90;99.90;;;;;;5134114;27;20197;-71
2022/05/30 03:15:50;;;;;;;5.50;3.70;;;11.80;99.90;;;;;;5134080;27;20700;-71
2022/05/30 03:18:15;;;;;;;6.63;4.07;;;11.80;99.90;;;;;;5134752;27;20192;-71
2022/05/30 03:20:41;;;;;;;6.83;4.60;;;11.80;99.90;;;;;;5133665;27;20193;-71
2022/05/30 03:23:07;;;;;;;12.27;4.57;;;11.80;99.90;;;;;;5128382;27;20173;-70
2022/05/30 03:25:32;;;;;;;8.30;4.80;;;11.80;99.90;;;;;;5135505;27;20205;-70
2022/05/30 03:27:58;;;;;;;5.70;4.37;;;11.90;99.90;;;;;;5138433;27;20209;-70
2022/05/30 03:30:24;;;;;;;6.40;4.53;;;11.90;99.90;;;;;;5136206;27;20205;-69
2022/05/30 03:32:50;;;;;;;7.90;4.33;;;11.90;99.90;;;;;;5119760;27;20208;-71
2022/05/30 03:35:16;;;;;;;8.97;4.57;;;11.90;99.90;;;;;;5137923;27;20248;-71
2022/05/30 03:37:42;;;;;;;8.80;5.07;;;11.90;99.90;;;;;;5119716;27;20173;-71
2022/05/30 03:40:12;;;;;;;6.23;4.57;;;11.80;99.90;;;;;;5136811;27;20197;-70
2022/05/30 03:42:37;;;;;;;5.57;4.17;;;11.80;99.90;;;;;;5135686;27;20220;-71
2022/05/30 03:45:04;;;;;;;7.47;4.83;;;11.80;99.90;;;;;;5137140;27;20209;-70
2022/05/30 03:47:38;;;;;;;9.73;5.10;;;11.90;99.90;;;;;;5135741;27;20216;-71
2022/05/30 03:50:05;;;;;;;10.20;5.20;;;11.90;99.90;;;;;;5134751;27;20177;-71
2022/05/30 03:52:30;;;;;;;9.73;5.43;;;12.00;99.90;;;;;;5134447;27;20734;-71
2022/05/30 03:54:56;;;;;;;8.80;5.63;;;11.90;99.90;;;;;;5128407;27;20301;-72
2022/05/30 03:57:21;;;;;;;7.47;5.13;;;11.90;99.90;;;;;;5135974;27;20196;-71
2022/05/30 03:59:48;;;;;;;10.97;5.77;;;11.90;99.90;;;;;;5135649;27;20185;-71
2022/05/30 04:02:13;;;;;;;10.03;6.00;;;11.90;99.90;;;;;;5135509;27;20172;-71
2022/05/30 04:04:38;;;;;;;9.63;5.70;;;11.90;99.90;;;;;;5136788;27;20202;-72
2022/05/30 04:07:04;;;;;;;11.63;6.00;;;11.80;99.90;;;;;;5135360;27;20513;-71
2022/05/30 04:09:30;;;;;;;10.33;6.00;;;11.80;99.90;;;;;;5117157;27;20273;-71
2022/05/30 04:11:55;;;;;;;13.57;6.67;;;11.90;99.90;;;;;;5133871;27;20201;-71
2022/05/30 04:14:21;;;;;;;9.77;6.23;;;11.90;99.90;;;;;;5136157;27;20224;-70
2022/05/30 04:16:46;;;;;;;11.73;6.67;;;11.90;99.90;;;;;;5117788;27;20256;-71
2022/05/30 04:19:12;;;;;;;9.97;6.33;;;11.80;99.90;;;;;;5124623;27;20687;-72
2022/05/30 04:21:37;;;;;;;10.13;6.33;;;11.80;99.90;;;;;;5135300;27;20208;-71
2022/05/30 04:24:04;;;;;;;10.50;6.33;;;11.80;99.90;;;;;;5125384;27;20218;-70
2022/05/30 04:26:30;;;;;;;8.63;5.57;;;11.60;99.90;;;;;;5116720;27;20220;-71
2022/05/30 04:28:55;;;;;;;13.97;6.30;;;11.60;99.90;;;;;;5135489;27;20535;-71
2022/05/30 04:31:21;;;;;;;9.83;6.57;;;11.60;99.90;;;;;;5123390;27;20169;-71
2022/05/30 04:33:46;;;;;;;10.40;5.87;;;11.60;99.90;;;;;;5114691;28;20209;-70
2022/05/30 04:36:13;;;;;;;10.70;5.30;;;11.60;99.90;;;;;;5114622;27;20198;-70
2022/05/30 04:38:39;;;;;;;16.27;5.87;;;11.70;99.90;;;;;;5111846;28;20525;-70
2022/05/30 04:41:04;;;;;;;11.67;5.70;;;11.60;99.90;;;;;;5112345;28;20185;-69
2022/05/30 04:43:30;;;;;;;10.60;5.33;;;11.70;99.90;;;;;;5113076;28;20182;-71
2022/05/30 04:46:17;;;;;;;8.77;5.47;;;11.80;99.90;;;;;;5113773;28;20216;-70
2022/05/30 04:48:44;;;;;;;14.70;5.93;;;12.00;99.90;;;;;;5094629;28;20256;-70
2022/05/30 04:51:10;;;;;;;14.00;5.87;;;12.10;99.90;;;;;;5114301;28;20208;-70
2022/05/30 04:53:36;;;;;;;8.90;4.47;;;12.20;99.90;;;;;;5115553;28;20224;-71
2022/05/30 04:56:03;;;;;;;12.60;5.00;;;12.20;99.90;;;;;;5114274;28;20280;-71
2022/05/30 04:58:29;;;;;;;13.93;5.13;;;12.30;99.90;;;;;;5114023;28;20174;-70
2022/05/30 05:00:59;;;;;;;13.03;5.03;;;12.60;99.90;;;;;;5107784;28;20260;-71
2022/05/30 05:03:27;;;;;;;14.47;5.00;;;12.90;99.90;;;;;;5109426;28;20232;-71
2022/05/30 05:06:03;;;;;;;8.23;4.30;;;13.00;99.90;;;;;;5113600;27;20214;-70
2022/05/30 05:08:43;;;;;;;12.93;4.78;;;13.20;99.90;;;;;;5094079;28;20232;-70
2022/05/30 05:11:12;;;;;;;9.95;3.90;;;13.50;99.90;;;;;;5094747;28;20248;-71
2022/05/30 05:13:37;;;;;;;12.23;4.30;;;13.60;99.90;;;;;;5114437;28;20202;-70
2022/05/30 05:16:03;;;;;;;7.50;3.67;;;13.50;99.90;;;;;;5112884;28;20471;-70
2022/05/30 05:18:28;;;;;;;7.88;3.72;;;13.60;99.90;;;;;;5111868;28;20645;-70
2022/05/30 05:20:54;;;;;;;8.35;3.88;;;13.50;99.90;;;;;;5113410;28;20202;-70
2022/05/30 05:23:20;;;;;;;8.85;3.72;;;13.70;99.90;;;;;;5096511;28;20731;-71
2022/05/30 05:25:45;;;;;;;10.15;3.92;;;13.70;99.90;;;;;;5095793;28;20680;-72
2022/05/30 05:28:11;;;;;;;9.55;3.55;;;13.60;99.90;;;;;;5113171;27;20310;-72
2022/05/30 05:30:40;;;;;;;10.93;3.95;;;13.50;99.90;;;;;;5093384;27;20225;-71
2022/05/30 05:33:06;;;;;;;8.02;3.85;;;13.40;99.90;;;;;;5089469;28;20609;-70
2022/05/30 05:35:32;;;;;;;9.15;3.67;;;13.30;99.90;;;;;;5111409;28;20220;-70
2022/05/30 05:37:57;;;;;;;8.63;3.65;;;13.20;99.90;;;;;;5111428;28;20202;-71
2022/05/30 05:40:24;;;;;;;9.90;3.90;;;13.30;99.90;;;;;;5111559;28;20192;-70
2022/05/30 05:42:49;;;;;;;12.18;4.68;;;13.40;99.90;;;;;;5113118;28;20214;-71
2022/05/30 05:45:15;;;;;;;8.88;3.88;;;13.40;99.90;;;;;;5111068;28;20205;-71
2022/05/30 05:47:40;;;;;;;16.02;4.20;;;13.40;99.90;;;;;;5110838;28;20266;-70
2022/05/30 05:50:07;;;;;;;10.80;4.18;;;13.60;99.90;;;;;;5094266;28;20165;-70
2022/05/30 05:52:32;;;;;;;9.48;4.40;;;13.50;99.90;;;;;;5094629;28;20170;-70
2022/05/30 05:54:58;;;;;;;9.60;3.75;;;13.40;99.90;;;;;;5094224;28;20548;-71
2022/05/30 05:57:27;;;;;;;10.00;3.92;;;13.20;99.90;;;;;;5112718;28;20204;-72
2022/05/30 05:59:53;;;;;;;7.57;3.43;;;13.10;99.90;;;;;;5111683;28;20194;-70
2022/05/30 06:02:19;;;;;;;12.13;4.07;;;12.90;99.90;;;;;;5086278;28;20214;-71
2022/05/30 06:04:45;;;;;;;11.63;4.20;;;12.80;99.90;;;;;;5094172;28;20263;-70
2022/05/30 06:07:11;;;;;;;8.43;4.00;;;12.50;99.90;;;;;;5111997;28;20584;-70
2022/05/30 06:09:37;;;;;;;10.13;4.37;;;12.50;99.90;;;;;;5111073;28;20628;-70
2022/05/30 06:12:04;;;;;;;11.63;4.37;;;12.60;99.90;;;;;;5102817;28;20198;-71
2022/05/30 06:14:29;;;;;;;8.93;4.27;;;12.60;99.90;;;;;;5111360;28;20217;-71
2022/05/30 06:16:55;;;;;;;10.50;4.13;;;12.60;99.90;;;;;;5111895;28;20200;-70
2022/05/30 06:19:21;;;;;;;13.17;4.17;;;12.50;99.90;;;;;;5093306;28;20231;-72
2022/05/30 06:21:47;;;;;;;9.83;4.27;;;12.50;99.90;;;;;;5102444;28;20209;-69
2022/05/30 06:24:14;;;;;;;10.73;4.20;;;12.60;99.90;;;;;;5093692;28;20290;-70
2022/05/30 06:26:40;;;;;;;11.93;4.50;;;12.60;99.90;;;;;;5093335;28;20252;-69
2022/05/30 06:29:06;;;;;;;10.97;4.27;;;12.70;99.90;;;;;;5109908;28;20622;-70
2022/05/30 06:31:31;;;;;;;8.00;4.10;;;12.70;99.90;;;;;;5104872;28;20182;-71
2022/05/30 06:34:02;;;;;;;7.77;3.47;;;12.60;99.90;;;;;;5093207;28;20639;-71
2022/05/30 06:36:27;;;;;;;15.65;4.55;;;12.70;99.90;;;;;;5092849;28;20201;-69
2022/05/30 06:38:55;;;;;;;12.17;4.03;;;12.90;99.90;;;;;;5110641;28;20198;-71
2022/05/30 06:41:21;;;;;;;9.30;3.37;;;13.20;99.90;;;;;;5111410;28;20672;-70
2022/05/30 06:43:47;;;;;;;9.00;3.65;;;13.10;99.90;;;;;;5110593;28;20174;-70
2022/05/30 06:46:15;;;;;;;7.93;3.97;;;13.30;99.90;;;;;;5110970;28;20286;-70
2022/05/30 06:48:41;;;;;;;9.27;4.30;;;13.50;99.90;;;;;;5110092;28;20214;-69
2022/05/30 06:51:11;;;;;;;12.25;4.47;;;13.80;99.90;;;;;;5111164;28;20201;-70
2022/05/30 06:53:37;;;;;;;14.75;4.38;;;14.10;99.90;;;;;;5110941;28;20225;-69
2022/05/30 06:56:11;;;;;;;14.82;5.47;;;14.20;99.90;;;;;;5111282;28;20195;-70
2022/05/30 06:58:37;;;;;;;10.98;3.42;;;14.40;99.90;;;;;;5092576;28;20181;-72
2022/05/30 07:01:03;;;;;;;11.10;4.07;;;14.50;99.90;;;;;;5104865;28;20602;-73
2022/05/30 07:03:28;;;;;;;13.30;3.72;;;14.70;99.90;;;;;;5090623;28;20297;-70
2022/05/30 07:05:54;;;;;;;8.13;3.53;;;14.80;99.90;;;;;;5110890;28;20277;-70
2022/05/30 07:08:19;;;;;;;7.30;3.33;;;14.90;99.90;;;;;;5110458;28;20213;-70
2022/05/30 07:10:45;;;;;;;6.70;3.38;;;14.70;99.90;;;;;;5110228;28;20209;-71
2022/05/30 07:13:12;;;;;;;9.65;3.50;;;14.60;99.90;;;;;;5111031;28;20765;-70
2022/05/30 07:15:38;;;;;;;9.15;4.05;;;14.40;99.90;;;;;;5109489;28;20209;-71
2022/05/30 07:18:12;;;;;;;10.63;3.85;;;14.00;99.90;;;;;;5100892;28;20206;-72
2022/05/30 07:20:39;;;;;;;9.40;3.95;;;14.10;99.90;;;;;;5111222;28;20209;-72
2022/05/30 07:23:05;;;;;;;9.88;3.47;;;14.00;99.90;;;;;;5111027;28;20703;-72
2022/05/30 07:25:35;;;;;;;9.45;3.85;;;14.10;99.90;;;;;;5111038;28;20266;-72
2022/05/30 07:28:02;;;;;;;8.55;3.42;;;14.10;99.90;;;;;;5110296;28;20213;-72
2022/05/30 07:30:27;;;;;;;11.05;4.10;;;14.00;99.90;;;;;;5109253;28;20202;-72
2022/05/30 07:32:55;;;;;;;8.70;3.75;;;14.00;99.90;;;;;;5085163;28;20216;-72
2022/05/30 07:35:20;;;;;;;14.15;4.30;;;14.00;99.90;;;;;;5110603;28;20206;-73
2022/05/30 07:37:46;;;;;;;10.23;3.90;;;13.90;99.90;;;;;;5110924;28;20169;-72
2022/05/30 07:40:12;;;;;;;10.00;4.40;;;13.50;99.90;;;;;;5109124;28;20208;-72
2022/05/30 07:42:38;;;;;;;14.10;4.32;;;13.40;99.90;;;;;;5092175;28;20220;-72
2022/05/30 07:45:04;;;;;;;8.18;4.22;;;13.50;99.90;;;;;;5109512;28;20626;-72
2022/05/30 07:47:29;;;;;;;11.02;4.25;;;13.60;99.90;;;;;;5112875;28;20604;-72
2022/05/30 07:50:02;;;;;;;7.68;3.40;;;13.60;99.90;;;;;;5112645;28;20170;-72
2022/05/30 07:52:29;;;;;;;9.20;3.33;;;13.60;99.90;;;;;;5114673;28;20165;-72
2022/05/30 07:54:55;;;;;;;11.90;3.83;;;13.70;99.90;;;;;;5114930;28;20202;-71
2022/05/30 07:57:50;;;;;;;9.75;4.00;;;13.80;99.90;;;;;;5096032;28;20193;-73
2022/05/30 08:00:07;;;;;;;7.00;3.35;;;13.90;99.90;;;;;;5114163;28;20277;-71
2022/05/30 08:02:32;;;;;;;9.02;3.70;;;14.00;99.90;;;;;;5105134;28;20202;-71
2022/05/30 08:04:57;;;;;;;11.98;3.63;;;14.00;99.90;;;;;;5112950;28;20239;-72
2022/05/30 08:07:23;;;;;;;8.18;3.40;;;14.00;99.90;;;;;;5114686;28;20169;-72
2022/05/30 08:09:48;;;;;;;7.25;3.58;;;14.10;99.90;;;;;;5112155;28;20217;-72
2022/05/30 08:12:14;;;;;;;6.30;2.88;;;14.40;99.90;;;;;;5114419;27;20197;-72
2022/05/30 08:14:39;;;;;;;6.50;3.03;;;14.60;99.90;;;;;;5113529;28;20218;-72
2022/05/30 08:17:05;;;;;;;11.30;3.40;;;15.00;99.90;;;;;;5113043;27;20202;-72
2022/05/30 08:19:31;;;;;;;9.75;3.00;;;15.20;99.90;;;;;;5113627;28;20162;-72
2022/05/30 08:22:05;;;;;;;10.98;3.50;;;15.20;99.90;;;;;;5113946;28;20225;-72
2022/05/30 08:24:39;;;;;;;7.43;3.03;;;15.10;99.90;;;;;;5120508;27;20247;-72
2022/05/30 08:27:04;;;;;;;6.97;3.22;;;15.20;99.90;;;;;;5095527;28;20251;-73
2022/05/30 08:29:30;;;;;;;8.80;3.58;;;15.70;99.90;;;;;;5097272;28;20209;-71
2022/05/30 08:31:56;;;;;;;6.88;3.20;;;16.20;99.90;;;;;;5106064;27;20169;-72
2022/05/30 08:34:22;;;;;;;8.23;2.97;;;17.80;99.90;;;;;;5113864;28;20208;-72
2022/05/30 08:36:48;;;;;;;7.38;3.00;;;18.90;99.90;;;;;;5113731;28;20193;-72
2022/05/30 08:42:00;;;;;;;5.30;2.90;;;19.60;99.90;;;;;;5113877;28;20212;-72
2022/05/30 08:44:29;;;;;;;9.52;3.30;;;19.40;99.90;;;;;;5096160;28;20228;-72
2022/05/30 08:47:12;;;;;;;9.88;3.05;;;18.90;99.90;;;;;;5113592;27;20170;-72
2022/05/30 08:49:49;;;;;;;8.02;2.58;;;19.40;99.90;;;;;;5111833;28;20166;-73
2022/05/30 08:52:25;;;;;;;7.22;2.45;;;20.40;99.90;;;;;;5095285;28;20282;-72
2022/05/30 08:55:07;;;;;;;6.60;2.53;;;21.30;99.90;;;;;;5111896;28;20721;-72
2022/05/30 08:57:59;;;;;;;6.07;2.33;;;21.20;99.90;;;;;;5111189;28;20198;-73
2022/05/30 09:00:35;;;;;;;4.50;1.90;;;21.70;99.90;;;;;;5111771;28;20213;-72
2022/05/30 09:03:36;;;;;;;8.27;2.40;;;21.00;99.90;;;;;;5111701;28;20236;-72
2022/05/30 09:06:06;;;;;;;7.70;2.60;;;19.90;99.90;;;;;;5109255;28;20202;-72
2022/05/30 09:08:54;;;;;;;6.22;2.17;;;19.40;99.90;;;;;;5112184;28;20283;-72
2022/05/30 09:11:24;;;;;;;3.72;1.67;;;19.60;99.90;;;;;;5094982;28;20211;-72
2022/05/30 09:13:53;;;;;;;5.35;1.70;;;19.90;99.90;;;;;;5111883;28;20217;-72
2022/05/30 09:16:31;;;;;;;4.80;2.00;;;20.70;99.90;;;;;;5111546;28;20284;-72
2022/05/30 09:18:58;;;;;;;4.43;2.00;;;21.00;99.90;;;;;;5093567;28;20280;-72
2022/05/30 09:21:27;;;;;;;7.55;2.38;;;21.70;99.90;;;;;;5094611;28;20251;-73
2022/05/30 09:23:53;;;;;;;6.45;2.13;;;21.60;99.90;;;;;;5112995;28;20200;-72
2022/05/30 09:26:25;;;;;;;5.13;1.67;;;21.90;99.90;;;;;;5111144;28;20213;-72
2022/05/30 09:28:52;;;;;;;5.30;1.83;;;21.40;99.90;;;;;;5094464;28;20224;-72
2022/05/30 09:31:21;;;;;;;4.80;1.73;;;21.40;99.90;;;;;;5087093;28;20198;-72
2022/05/30 09:33:48;;;;;;;4.50;2.20;;;21.10;99.90;;;;;;5086402;28;20216;-71
2022/05/30 09:36:18;;;;;;;3.42;1.60;;;21.20;99.90;;;;;;5111293;28;20201;-71
2022/05/30 09:38:55;;;;;;;3.78;1.60;;;21.40;99.90;;;;;;5111664;28;20250;-71
2022/05/30 09:41:40;;;;;;;3.03;1.80;;;20.70;99.90;;;;;;5112159;28;20207;-71
2022/05/30 09:44:17;;;;;;;6.18;2.65;;;20.10;99.90;;;;;;5111527;28;20264;-71
2022/05/30 09:46:56;;;;;;;4.03;1.92;;;19.50;99.90;;;;;;5112907;28;20204;-71
2022/05/30 09:49:27;;;;;;;4.22;1.63;;;18.80;99.90;;;;;;5111547;28;20266;-70
2022/05/30 09:51:55;;;;;;;4.93;2.63;;;18.50;99.90;;;;;;5112383;28;20212;-71
2022/05/30 09:54:24;;;;;;;5.05;1.65;;;17.90;99.90;;;;;;5097389;28;20214;-69
2022/05/30 09:57:09;;;;;;;8.05;2.10;;;17.90;99.90;;;;;;5111793;28;20677;-70
2022/05/30 09:59:43;;;;;;;4.60;1.58;;;18.60;99.90;;;;;;5118213;27;20216;-71
2022/05/30 10:02:27;;;;;;;4.38;2.58;;;19.50;99.90;;;;;;5118728;27;20175;-70
2022/05/30 10:05:04;;;;;;;6.43;1.88;;;19.80;99.90;;;;;;5086901;28;20285;-69
2022/05/30 10:07:32;;;;;;;2.20;1.52;;;19.90;99.90;;;;;;5131373;27;20573;-69
2022/05/30 10:10:18;;;;;;;5.35;2.28;;;20.40;99.90;;;;;;5105769;27;20201;-69
2022/05/30 10:12:52;;;;;;;7.38;3.42;;;20.10;99.90;;;;;;5110618;28;20194;-69
2022/05/30 10:15:31;;;;;;;3.08;1.50;;;19.50;99.90;;;;;;5110156;28;20215;-70
2022/05/30 10:18:10;;;;;;;3.35;2.05;;;18.90;99.90;;;;;;5117322;27;20219;-69
2022/05/30 10:21:03;;;;;;;7.65;3.65;;;18.90;99.90;;;;;;5117415;27;20682;-72
2022/05/30 10:30:05;;;;;;;3.95;2.75;;;19.00;99.90;;;;;;5101914;28;20544;-70
2022/05/30 10:32:52;;;;;;;5.72;3.70;;;19.30;99.90;;;;;;5101919;28;20205;-71
2022/05/30 10:35:31;;;;;;;3.83;1.40;;;19.50;99.90;;;;;;5102534;28;20571;-71
2022/05/30 10:38:11;;;;;;;3.75;1.52;;;19.00;99.90;;;;;;5095640;28;20174;-72
2022/05/30 10:40:40;;;;;;;5.35;1.98;;;18.40;99.90;;;;;;5095319;28;20190;-71
2022/05/30 10:43:23;;;;;;;3.55;1.83;;;18.60;99.90;;;;;;5107916;27;20228;-72
2022/05/30 10:46:15;;;;;;;4.45;1.77;;;19.10;99.90;;;;;;5097033;28;20296;-72
2022/05/30 10:48:49;;;;;;;3.55;2.15;;;19.50;99.90;;;;;;5108399;28;20227;-72
2022/05/30 10:51:28;;;;;;;2.90;1.73;;;20.00;99.90;;;;;;5097646;28;20209;-72
2022/05/30 10:54:38;;;;;;;4.03;1.77;;;19.50;99.90;;;;;;5083786;28;20204;-72
2022/05/30 10:57:22;;;;;;;5.82;1.88;;;19.70;99.90;;;;;;5100779;28;20206;-73
2022/05/30 11:00:02;;;;;;;1.75;1.05;;;19.70;99.90;;;;;;5104723;28;20688;-72
2022/05/30 11:02:51;;;;;;;4.35;2.20;;;19.20;99.90;;;;;;5095445;28;20231;-72
2022/05/30 11:05:33;;;;;;;4.82;2.30;;;19.30;99.90;;;;;;5099645;28;20214;-72
2022/05/30 11:08:26;;;;;;;7.05;3.33;;;19.20;99.90;;;;;;5094820;27;20196;-71
2022/05/30 11:11:12;;;;;;;3.83;2.60;;;19.40;99.90;;;;;;5106072;28;20238;-70
2022/05/30 11:13:46;;;;;;;5.68;1.35;;;19.90;99.90;;;;;;5114115;28;20630;-70
2022/05/30 11:16:31;;;;;;;3.40;1.60;;;20.00;99.90;;;;;;5109069;28;20236;-70
2022/05/30 11:19:15;;;;;;;2.08;1.00;;;19.80;99.90;;;;;;5087995;28;20202;-70
2022/05/30 11:21:44;;;;;;;4.40;3.55;;;19.80;99.90;;;;;;5091755;27;20212;-71
2022/05/30 11:24:10;;;;;;;2.80;1.55;;;19.80;99.90;;;;;;5094140;28;20597;-70
2022/05/30 11:26:52;;;;;;;3.15;1.23;;;19.90;99.90;;;;;;5092934;27;20221;-72
2022/05/30 11:29:43;;;;;;;6.20;1.77;;;19.50;99.90;;;;;;5093169;28;21182;-71
2022/05/30 11:32:20;;;;;;;4.63;1.27;;;19.20;99.90;;;;;;5095551;27;20162;-72
2022/05/30 11:35:05;;;;;;;3.22;1.60;;;19.00;99.90;;;;;;5105621;27;20729;-72
2022/05/30 11:37:50;;;;;;;2.45;1.08;;;19.10;99.90;;;;;;5112405;27;20211;-72
2022/05/30 11:40:40;;;;;;;4.70;1.40;;;18.80;99.90;;;;;;5101467;27;20567;-72
2022/05/30 11:43:33;;;;;;;3.60;1.20;;;18.90;99.90;;;;;;5113842;27;20204;-72
2022/05/30 11:46:49;;;;;;;2.55;1.13;;;18.70;99.90;;;;;;5099483;27;20209;-73
2022/05/30 11:49:37;;;;;;;4.70;1.60;;;18.40;99.90;;;;;;5057164;28;20210;-72
2022/05/30 11:52:13;;;;;;;3.15;1.40;;;18.50;99.90;;;;;;5070239;28;20288;-72
2022/05/30 11:54:53;;;;;;;5.88;1.90;;;18.50;99.90;;;;;;5104899;27;20221;-72
2022/05/30 11:57:34;;;;;;;5.43;1.50;;;18.00;99.90;;;;;;5118648;27;20197;-72
2022/05/30 12:00:07;;;;;;;4.78;1.42;;;18.00;99.90;;;;;;5124154;27;20204;-73
2022/05/30 12:02:41;;;;;;;4.38;1.50;;;17.90;99.90;;;;;;5099671;27;20206;-73
2022/05/30 12:05:44;;;;;;;3.90;1.75;;;18.00;99.90;;;;;;5105727;27;20216;-73
2022/05/30 12:08:24;;;;;;;5.45;1.40;;;18.20;99.90;;;;;;5097619;27;20186;-72
2022/05/30 12:10:59;;;;;;;4.85;1.58;;;18.40;99.90;;;;;;5098714;27;20167;-73
2022/05/30 12:13:51;;;;;;;7.00;3.85;;;18.50;99.90;;;;;;5108499;27;20269;-74
2022/05/30 12:16:36;;;;;;;4.85;1.55;;;18.70;99.90;;;;;;5084725;27;20842;-73
2022/05/30 12:25:02;;;;;;;4.03;1.75;;;17.60;99.90;;;;;;5111283;27;20221;-73
2022/05/30 12:27:30;;;;;;;2.72;1.13;;;17.40;99.90;;;;;;5109657;27;20609;-71
2022/05/30 12:30:00;;;;;;;4.03;1.70;;;17.00;99.90;;;;;;5107364;27;20212;-72
2022/05/30 12:32:39;;;;;;;2.03;1.35;;;17.10;99.90;;;;;;5087714;27;20331;-71
2022/05/30 12:35:33;;;;;;;4.55;2.42;;;17.50;99.90;;;;;;5113357;27;20194;-73
2022/05/30 12:37:59;;;;;;;6.45;3.03;;;17.90;99.90;;;;;;5105344;27;20202;-73
2022/05/30 12:40:27;;;;;;;4.78;2.28;;;18.30;99.90;;;;;;5099781;27;20301;-73
2022/05/30 12:43:32;;;;;;;4.93;1.58;;;18.70;99.90;;;;;;5109971;27;20194;-72
2022/05/30 12:45:58;;;;;;;6.15;1.95;;;18.80;99.90;;;;;;5109161;27;20224;-72
2022/05/30 12:48:36;;;;;;;3.95;1.58;;;18.60;99.90;;;;;;5115167;27;20206;-72
2022/05/30 12:51:13;;;;;;;4.13;1.50;;;18.60;99.90;;;;;;5104710;27;20197;-73
2022/05/30 12:53:57;;;;;;;3.72;1.58;;;18.50;99.90;;;;;;5084842;28;20216;-74
2022/05/30 12:56:57;;;;;;;5.50;2.70;;;18.10;99.90;;;;;;5120942;27;20226;-71
2022/05/30 12:59:33;;;;;;;452.95;246.60;;;18.10;99.90;;;;;;5118394;27;20261;-74
2022/05/30 13:02:00;;;;;;;297.40;118.28;;;18.70;99.90;;;;;;5104169;27;20168;-73
2022/05/30 13:04:31;;;;;;;83.15;37.58;;;18.60;99.90;;;;;;5112414;27;20537;-71
2022/05/30 13:06:57;;;;;;;15.45;7.53;;;18.70;99.90;;;;;;5105621;27;20300;-72
2022/05/30 13:09:36;;;;;;;31.52;13.15;;;19.10;99.90;;;;;;5116828;27;20722;-70
2022/05/30 13:12:20;;;;;;;13.68;7.43;;;18.90;99.90;;;;;;5108853;27;20192;-72
2022/05/30 13:14:49;;;;;;;29.27;13.70;;;19.00;99.90;;;;;;5109245;27;20254;-71
2022/05/30 13:17:23;;;;;;;8.82;4.28;;;19.10;99.90;;;;;;5084685;28;20237;-70
2022/05/30 13:20:09;;;;;;;8.98;3.90;;;18.80;99.90;;;;;;5116140;27;20264;-70
2022/05/30 13:22:45;;;;;;;4.35;2.20;;;18.50;99.90;;;;;;5114504;27;20963;-72
2022/05/30 13:27:37;;;;;;;7.72;3.90;;;18.20;99.90;;;;;;5099606;22;20226;-73
2022/05/30 13:30:25;;;;;;;8.23;2.10;;;18.00;99.90;;;;;;5079907;28;20198;-73